Time;durP1;ratioP1;P1;durP2;ratioP2;P2;SDS_P1;SDS_P2;PMS_P1;PMS_P2;Temp;Humidity;BMP_temperature;BMP_pressure;BME280_temperature;BME280_humidity;BME280_pressure;Samples;Min_cycle;Max_cycle;Signal;HPM_P1;HPM_P2
2023/09/15 00:00:54;;;;;;;32.05;28.33;;;;;;;29.47;nan;97895.56;5032651;28;20654;-65
2023/09/15 00:03:23;;;;;;;33.90;29.10;;;;;;;29.51;nan;97890.22;5017172;28;20488;-65
2023/09/15 00:05:53;;;;;;;33.55;29.48;;;;;;;29.51;nan;97899.22;5033793;28;20540;-65
2023/09/15 00:08:22;;;;;;;33.45;28.55;;;;;;;29.49;nan;97900.66;5041713;28;20071;-65
2023/09/15 00:10:52;;;;;;;32.97;29.50;;;;;;;29.55;nan;97929.34;5039270;28;20041;-65
2023/09/15 00:13:21;;;;;;;34.47;29.48;;;;;;;29.61;nan;97936.22;5039122;28;20049;-65
2023/09/15 00:15:51;;;;;;;39.80;32.42;;;;;;;29.39;nan;97943.59;5039475;28;20056;-64
2023/09/15 00:18:21;;;;;;;44.30;36.60;;;;;;;29.33;nan;97944.94;5038617;28;20077;-65
2023/09/15 00:20:50;;;;;;;54.03;39.03;;;;;;;29.28;nan;97947.03;5030897;28;20456;-65
2023/09/15 00:23:19;;;;;;;52.78;39.53;;;;;;;29.21;nan;97957.69;5025454;28;20830;-65
2023/09/15 00:25:50;;;;;;;40.97;35.35;;;;;;;28.94;nan;97967.94;5044773;28;20044;-65
2023/09/15 00:28:19;;;;;;;39.58;30.80;;;;;;;28.75;nan;97977.69;5041799;28;20051;-65
2023/09/15 00:30:49;;;;;;;20.90;18.65;;;;;;;28.32;nan;97969.69;5044703;28;20045;-65
2023/09/15 00:33:19;;;;;;;21.15;16.33;;;;;;;28.20;nan;97970.34;5044605;28;20079;-65
2023/09/15 00:35:48;;;;;;;24.13;15.40;;;;;;;27.95;nan;97976.63;5031286;28;20049;-65
2023/09/15 00:38:21;;;;;;;20.92;15.80;;;;;;;27.75;nan;97996.34;5040077;28;20045;-65
2023/09/15 00:40:51;;;;;;;23.50;14.82;;;;;;;27.79;nan;98000.03;5046270;28;20053;-64
2023/09/15 00:43:21;;;;;;;19.52;13.25;;;;;;;27.77;nan;98008.50;5013186;28;20071;-65
2023/09/15 00:45:50;;;;;;;21.27;12.55;;;;;;;27.49;nan;98018.91;5042159;28;20053;-65
2023/09/15 00:48:21;;;;;;;17.13;12.10;;;;;;;27.43;nan;98013.94;5045189;28;20102;-65
2023/09/15 00:50:51;;;;;;;19.45;12.65;;;;;;;27.45;nan;98020.63;5041108;28;20056;-65
2023/09/15 00:53:22;;;;;;;17.38;11.98;;;;;;;27.42;nan;98020.47;5031147;28;20049;-65
2023/09/15 00:55:52;;;;;;;14.90;12.65;;;;;;;27.31;nan;98008.31;5024409;28;20635;-65
2023/09/15 00:58:22;;;;;;;17.52;13.63;;;;;;;27.24;nan;98008.78;5033432;28;20643;-64
2023/09/15 01:00:52;;;;;;;17.27;15.02;;;;;;;27.12;nan;98025.72;5021719;28;20057;-65
2023/09/15 01:03:24;;;;;;;16.73;14.50;;;;;;;27.16;nan;98020.44;5023540;28;20053;-65
2023/09/15 01:05:57;;;;;;;15.15;13.55;;;;;;;27.12;nan;98027.63;5027248;28;20049;-64
2023/09/15 01:08:27;;;;;;;15.45;12.40;;;;;;;27.19;nan;98025.25;5008173;28;20041;-65
2023/09/15 01:11:01;;;;;;;17.25;12.45;;;;;;;27.23;nan;98034.34;5022931;28;20057;-65
2023/09/15 01:13:35;;;;;;;12.77;11.45;;;;;;;27.21;nan;98037.41;5022667;28;20722;-64
2023/09/15 01:16:16;;;;;;;14.82;10.88;;;;;;;27.25;nan;98046.53;5024912;28;20349;-65
2023/09/15 01:19:01;;;;;;;14.50;10.45;;;;;;;27.33;nan;98058.53;5032666;28;20056;-65
2023/09/15 01:22:24;;;;;;;14.45;9.95;;;;;;;27.38;nan;98061.13;5044051;28;20055;-64
2023/09/15 01:25:25;;;;;;;14.75;9.55;;;;;;;27.44;nan;98080.81;4931213;29;20844;-65
2023/09/15 01:28:07;;;;;;;10.63;9.45;;;;;;;27.66;nan;98078.78;5023575;28;20049;-65
2023/09/15 01:30:38;;;;;;;10.68;9.57;;;;;;;27.80;nan;98072.38;5038931;28;20048;-65
2023/09/15 01:33:09;;;;;;;10.35;8.65;;;;;;;27.70;nan;98078.97;5030011;28;20468;-65
2023/09/15 01:35:39;;;;;;;9.93;8.93;;;;;;;27.75;nan;98091.59;5029201;28;20042;-65
2023/09/15 01:38:09;;;;;;;11.60;8.68;;;;;;;27.38;nan;98109.28;5024866;28;20095;-65
2023/09/15 01:40:39;;;;;;;11.60;9.23;;;;;;;27.75;nan;98114.16;5019430;28;20049;-65
2023/09/15 01:43:08;;;;;;;11.77;9.40;;;;;;;27.75;nan;98094.34;5032736;28;20076;-65
2023/09/15 01:45:38;;;;;;;14.10;9.32;;;;;;;27.68;nan;98092.06;5045398;28;20788;-65
2023/09/15 01:48:12;;;;;;;9.73;7.97;;;;;;;27.42;nan;98094.72;5040526;28;20041;-65
2023/09/15 01:50:42;;;;;;;10.45;7.18;;;;;;;27.35;nan;98093.59;5025923;28;20631;-65
2023/09/15 01:53:12;;;;;;;8.25;6.10;;;;;;;27.36;nan;98092.44;5026846;28;20053;-65
2023/09/15 01:55:43;;;;;;;8.18;6.28;;;;;;;27.37;nan;98097.59;5033913;28;20118;-65
2023/09/15 01:58:12;;;;;;;7.53;6.35;;;;;;;27.48;nan;98098.94;5044308;28;20128;-65
2023/09/15 02:00:42;;;;;;;14.13;6.78;;;;;;;27.61;nan;98100.72;5014868;28;20401;-65
2023/09/15 02:03:12;;;;;;;8.38;6.53;;;;;;;27.51;nan;98089.31;5031843;28;20045;-65
2023/09/15 02:05:42;;;;;;;10.98;6.60;;;;;;;27.51;nan;98087.41;5013266;28;20406;-65
2023/09/15 02:08:11;;;;;;;7.82;5.97;;;;;;;27.54;nan;98091.41;5013110;28;20041;-65
2023/09/15 02:10:40;;;;;;;9.00;6.43;;;;;;;27.56;nan;98079.09;5044226;28;20062;-65
2023/09/15 02:13:10;;;;;;;14.18;6.65;;;;;;;27.45;nan;98066.88;5043920;28;20064;-64
2023/09/15 02:15:40;;;;;;;7.88;6.32;;;;;;;27.43;nan;98057.44;5032292;28;20063;-65
2023/09/15 02:18:10;;;;;;;12.50;6.60;;;;;;;27.53;nan;98055.22;5024896;28;20049;-65
2023/09/15 02:20:40;;;;;;;11.95;6.43;;;;;;;27.60;nan;98055.56;5035978;28;20118;-65
2023/09/15 02:23:10;;;;;;;11.07;7.57;;;;;;;27.45;nan;98057.91;5038246;28;20045;-65
2023/09/15 02:25:39;;;;;;;9.68;7.07;;;;;;;27.64;nan;98056.53;5028971;28;20050;-65
2023/09/15 02:28:09;;;;;;;10.75;6.88;;;;;;;27.82;nan;98056.53;5024731;28;20060;-65
2023/09/15 02:30:38;;;;;;;11.85;7.40;;;;;;;27.92;nan;98042.63;5036467;28;20040;-65
2023/09/15 02:33:08;;;;;;;15.27;8.57;;;;;;;27.98;nan;98035.88;5030879;28;20049;-64
2023/09/15 02:35:37;;;;;;;27.33;15.73;;;;;;;27.74;nan;98046.47;5036736;28;20518;-65
2023/09/15 02:38:07;;;;;;;21.63;14.77;;;;;;;27.52;nan;98048.22;5040747;28;20472;-65
2023/09/15 02:40:36;;;;;;;24.60;15.57;;;;;;;27.47;nan;98056.50;5039132;28;20049;-65
2023/09/15 02:43:05;;;;;;;19.38;14.23;;;;;;;27.50;nan;98055.88;5014436;28;20046;-65
2023/09/15 02:45:35;;;;;;;20.25;13.73;;;;;;;27.76;nan;98049.66;5030146;28;20137;-65
2023/09/15 02:48:22;;;;;;;16.27;12.77;;;;;;;27.99;nan;98059.25;5026296;28;20873;-65
2023/09/15 02:50:52;;;;;;;16.08;10.00;;;;;;;27.85;nan;98067.59;5024675;28;20434;-65
2023/09/15 02:53:24;;;;;;;14.80;9.32;;;;;;;27.84;nan;98068.69;5040892;28;20068;-65
2023/09/15 02:55:59;;;;;;;19.15;10.15;;;;;;;28.13;nan;98078.97;5040072;28;20103;-65
2023/09/15 02:58:36;;;;;;;12.38;9.38;;;;;;;28.29;nan;98082.78;5020780;28;20476;-65
2023/09/15 03:01:18;;;;;;;15.35;8.93;;;;;;;28.46;nan;98092.84;5037919;28;20044;-65
2023/09/15 03:03:49;;;;;;;11.73;9.65;;;;;;;28.83;nan;98089.44;5026176;28;20103;-65
2023/09/15 03:06:20;;;;;;;13.57;9.27;;;;;;;28.82;nan;98087.00;5036804;28;20046;-65
2023/09/15 03:08:49;;;;;;;13.38;8.68;;;;;;;28.83;nan;98092.16;5042540;28;20049;-65
2023/09/15 03:11:19;;;;;;;15.57;8.82;;;;;;;29.02;nan;98097.22;5027951;28;20120;-64
2023/09/15 03:13:54;;;;;;;12.70;8.55;;;;;;;29.35;nan;98094.66;5026110;28;20445;-64
2023/09/15 03:16:25;;;;;;;11.43;7.45;;;;;;;29.28;nan;98092.44;5038376;28;20408;-64
2023/09/15 03:18:55;;;;;;;8.75;7.85;;;;;;;28.95;nan;98111.34;5020789;28;20364;-65
2023/09/15 03:21:24;;;;;;;9.93;7.43;;;;;;;29.16;nan;98121.53;5037462;28;20511;-65
2023/09/15 03:23:54;;;;;;;13.35;8.32;;;;;;;29.19;nan;98118.16;5024212;28;20041;-64
2023/09/15 03:26:24;;;;;;;13.48;8.35;;;;;;;29.56;nan;98108.34;5025011;28;20057;-64
2023/09/15 03:28:54;;;;;;;12.13;8.68;;;;;;;29.64;nan;98102.03;5032863;28;20124;-64
2023/09/15 03:31:24;;;;;;;10.45;8.70;;;;;;;29.89;nan;98104.59;5042535;28;20769;-64
2023/09/15 03:33:54;;;;;;;10.77;8.25;;;;;;;30.03;nan;98100.81;5026731;28;20041;-65
2023/09/15 03:36:26;;;;;;;13.15;7.70;;;;;;;30.10;nan;98081.94;5029529;28;20136;-65
2023/09/15 03:38:58;;;;;;;10.90;7.77;;;;;;;30.14;nan;98075.47;5020400;28;20049;-64
2023/09/15 03:41:28;;;;;;;12.40;8.95;;;;;;;29.91;nan;98082.44;5028578;28;20290;-64
2023/09/15 03:43:59;;;;;;;10.82;9.00;;;;;;;30.03;nan;98085.22;5028414;28;20044;-64
2023/09/15 03:46:28;;;;;;;16.00;8.98;;;;;;;29.90;nan;98094.50;5019854;28;20117;-65
2023/09/15 03:48:57;;;;;;;17.00;11.13;;;;;;;30.03;nan;98106.28;5022715;28;20131;-64
2023/09/15 03:51:29;;;;;;;13.43;9.43;;;;;;;30.08;nan;98101.41;5022600;28;20064;-65
2023/09/15 03:53:59;;;;;;;12.40;9.10;;;;;;;30.23;nan;98103.50;5028383;28;20057;-65
2023/09/15 03:56:29;;;;;;;9.25;7.53;;;;;;;30.08;nan;98097.88;5045051;28;20126;-64
2023/09/15 03:58:58;;;;;;;13.50;8.50;;;;;;;30.15;nan;98107.13;5030851;28;20048;-65
2023/09/15 04:01:31;;;;;;;;;;;;;;;30.05;nan;98107.53;5013283;28;20133;-64
2023/09/15 04:04:17;;;;;;;16.98;10.07;;;;;;;30.42;nan;98099.47;5033098;28;19921;-65
2023/09/15 04:06:46;;;;;;;23.60;11.63;;;;;;;30.61;nan;98108.81;5028077;28;20128;-64
2023/09/15 04:09:16;;;;;;;16.48;10.38;;;;;;;30.53;nan;98117.91;5009750;28;20054;-65
2023/09/15 04:12:03;;;;;;;15.60;10.05;;;;;;;30.94;nan;98110.69;5047310;28;20061;-66
2023/09/15 04:14:36;;;;;;;15.00;9.80;;;;;;;31.16;nan;98104.81;5039759;28;20072;-64
2023/09/15 04:17:05;;;;;;;11.45;8.73;;;;;;;31.00;nan;98112.91;5024147;28;20087;-65
2023/09/15 04:19:35;;;;;;;9.85;7.97;;;;;;;30.99;nan;98113.19;5039482;28;20157;-65
2023/09/15 04:22:04;;;;;;;8.90;7.53;;;;;;;31.02;nan;98116.09;5022264;28;20404;-65
2023/09/15 04:24:34;;;;;;;14.07;8.20;;;;;;;31.16;nan;98110.28;5020953;28;20152;-68
2023/09/15 04:27:04;;;;;;;9.85;7.75;;;;;;;31.04;nan;98105.59;5011175;28;20054;-66
2023/09/15 04:29:34;;;;;;;11.65;7.75;;;;;;;31.23;nan;98104.25;5026817;28;20064;-67
2023/09/15 04:32:04;;;;;;;12.35;8.32;;;;;;;31.34;nan;98108.09;5026139;28;20555;-66
2023/09/15 04:34:33;;;;;;;13.35;8.68;;;;;;;31.39;nan;98113.34;5024927;28;20103;-65
2023/09/15 04:37:03;;;;;;;9.63;8.15;;;;;;;31.30;nan;98113.47;5025566;28;20053;-65
2023/09/15 04:39:50;;;;;;;8.77;7.88;;;;;;;31.59;nan;98109.72;5025685;28;20477;-66
2023/09/15 04:42:20;;;;;;;10.32;7.90;;;;;;;31.71;nan;98103.44;5024889;28;20473;-66
2023/09/15 04:44:49;;;;;;;11.10;7.32;;;;;;;31.86;nan;98117.22;5011410;28;20041;-66
2023/09/15 04:47:34;;;;;;;8.57;7.68;;;;;;;31.63;nan;98121.59;5038501;28;20469;-66
2023/09/15 04:50:11;;;;;;;8.75;7.53;;;;;;;31.78;nan;98126.34;5032578;28;20146;-66
2023/09/15 04:52:41;;;;;;;9.20;7.50;;;;;;;32.01;nan;98132.13;5033545;28;20075;-66
2023/09/15 04:55:11;;;;;;;11.55;7.53;;;;;;;32.17;nan;98152.22;5039492;28;20147;-66
2023/09/15 04:57:41;;;;;;;8.70;7.80;;;;;;;32.22;nan;98149.19;5025377;28;20484;-66
2023/09/15 05:00:21;;;;;;;9.65;7.72;;;;;;;32.45;nan;98149.47;5040994;28;20056;-64
2023/09/15 05:02:59;;;;;;;65.45;11.50;;;;;;;32.65;nan;98145.75;5041830;28;20750;-67
2023/09/15 05:05:31;;;;;;;10.23;7.95;;;;;;;32.76;nan;98149.56;5017143;28;20045;-67
2023/09/15 05:08:01;;;;;;;12.05;8.90;;;;;;;33.14;nan;98154.53;5042179;28;20394;-66
2023/09/15 05:10:30;;;;;;;11.98;8.30;;;;;;;33.29;nan;98148.22;5015978;28;20092;-65
2023/09/15 05:13:05;;;;;;;12.38;8.00;;;;;;;33.49;nan;98159.28;5015992;28;20048;-65
2023/09/15 05:15:35;;;;;;;14.15;8.68;;;;;;;33.34;nan;98160.88;5042132;28;20106;-66
2023/09/15 05:18:05;;;;;;;9.43;7.57;;;;;;;33.79;nan;98165.91;5020084;28;20049;-66
2023/09/15 05:20:34;;;;;;;11.43;7.82;;;;;;;33.76;nan;98164.69;5016690;28;20053;-66
2023/09/15 05:23:04;;;;;;;11.00;8.55;;;;;;;33.58;nan;98166.19;5043806;28;20052;-65
2023/09/15 05:25:35;;;;;;;9.07;8.18;;;;;;;33.71;nan;98164.16;5022620;28;20484;-66
2023/09/15 05:28:05;;;;;;;10.07;8.90;;;;;;;33.78;nan;98169.81;5032354;28;20041;-66
2023/09/15 05:30:38;;;;;;;9.27;8.00;;;;;;;34.37;nan;98166.81;5024208;28;20385;-65
2023/09/15 05:33:08;;;;;;;10.77;9.13;;;;;;;34.53;nan;98164.78;5018983;28;20044;-65
2023/09/15 05:35:38;;;;;;;10.20;8.10;;;;;;;34.40;nan;98162.53;5027065;28;20097;-66
2023/09/15 05:38:11;;;;;;;11.05;8.55;;;;;;;34.22;nan;98164.91;5008252;28;20141;-66
2023/09/15 05:40:41;;;;;;;12.18;8.40;;;;;;;34.26;nan;98147.34;5019378;28;20049;-65
2023/09/15 05:43:10;;;;;;;11.00;8.40;;;;;;;34.70;nan;98139.59;5019869;28;20417;-66
2023/09/15 05:45:39;;;;;;;9.77;8.52;;;;;;;34.54;nan;98147.13;5033629;28;20052;-66
2023/09/15 05:48:12;;;;;;;9.57;8.55;;;;;;;34.52;nan;98152.16;5033258;28;20130;-65
2023/09/15 05:50:45;;;;;;;59.00;13.90;;;;;;;34.09;nan;98155.19;5032483;28;20061;-64
2023/09/15 05:53:14;;;;;;;9.73;8.60;;;;;;;34.46;nan;98167.41;5031242;28;20041;-65
2023/09/15 05:55:44;;;;;;;11.25;8.40;;;;;;;34.89;nan;98152.50;5032676;28;20056;-65
2023/09/15 05:58:15;;;;;;;11.25;9.15;;;;;;;34.67;nan;98156.84;5039832;28;20060;-65
2023/09/15 06:00:45;;;;;;;9.70;8.70;;;;;;;34.21;nan;98155.88;5031407;28;20060;-65
2023/09/15 06:03:14;;;;;;;10.68;9.07;;;;;;;34.35;nan;98157.31;5039519;28;20059;-65
2023/09/15 06:05:45;;;;;;;9.50;8.13;;;;;;;34.10;nan;98156.78;5040305;28;20084;-65
2023/09/15 06:08:15;;;;;;;10.20;9.15;;;;;;;34.67;nan;98159.59;5034607;28;20144;-65
2023/09/15 06:10:44;;;;;;;11.00;8.88;;;;;;;34.66;nan;98170.94;5029647;28;20096;-65
2023/09/15 06:13:14;;;;;;;15.00;10.02;;;;;;;34.48;nan;98167.00;5032766;28;20132;-65
2023/09/15 06:15:43;;;;;;;11.15;10.05;;;;;;;34.24;nan;98160.66;5033960;28;20057;-65
2023/09/15 06:18:13;;;;;;;10.63;9.63;;;;;;;34.01;nan;98161.69;5035291;28;20139;-65
2023/09/15 06:20:43;;;;;;;11.00;9.85;;;;;;;34.59;nan;98163.34;5017901;28;20049;-65
2023/09/15 06:23:12;;;;;;;10.52;9.52;;;;;;;34.72;nan;98167.53;5030862;28;20057;-65
2023/09/15 06:25:44;;;;;;;11.00;9.90;;;;;;;34.85;nan;98170.13;5036114;28;20110;-65
2023/09/15 06:28:14;;;;;;;12.40;10.80;;;;;;;34.84;nan;98163.81;5037168;28;20079;-65
2023/09/15 06:30:50;;;;;;;15.65;11.15;;;;;;;34.68;nan;98168.63;5020285;28;20053;-63
2023/09/15 06:33:39;;;;;;;15.20;12.98;;;;;;;34.48;nan;98159.56;5037094;28;20139;-63
2023/09/15 06:36:08;;;;;;;13.60;12.07;;;;;;;34.63;nan;98172.44;5043675;28;20795;-65
2023/09/15 06:38:37;;;;;;;15.48;12.32;;;;;;;34.85;nan;98167.38;5038770;28;20040;-64
2023/09/15 06:41:09;;;;;;;13.93;12.63;;;;;;;34.43;nan;98162.63;5034711;28;20468;-64
2023/09/15 06:43:38;;;;;;;13.35;11.98;;;;;;;34.42;nan;98160.22;5036812;28;21717;-64
2023/09/15 06:46:08;;;;;;;14.50;13.00;;;;;;;34.00;nan;98160.88;5032503;28;20049;-64
2023/09/15 06:48:37;;;;;;;13.93;12.35;;;;;;;33.90;nan;98155.97;5038404;28;20068;-65
2023/09/15 06:51:07;;;;;;;15.60;12.93;;;;;;;34.12;nan;98148.97;5032765;28;20049;-68
2023/09/15 06:53:36;;;;;;;15.38;13.27;;;;;;;34.21;nan;98149.59;5031575;28;20396;-67
2023/09/15 06:56:05;;;;;;;14.93;13.32;;;;;;;34.15;nan;98151.00;5037749;28;20049;-65
2023/09/15 06:58:35;;;;;;;15.38;13.70;;;;;;;34.00;nan;98157.34;5038283;28;20547;-68
2023/09/15 07:01:04;;;;;;;15.90;13.63;;;;;;;33.73;nan;98150.84;5036640;28;20068;-63
2023/09/15 07:03:33;;;;;;;18.05;13.60;;;;;;;34.05;nan;98146.06;5033839;28;20114;-64
2023/09/15 07:06:03;;;;;;;21.58;15.55;;;;;;;33.89;nan;98148.88;5039707;28;20049;-64
2023/09/15 07:08:32;;;;;;;16.38;14.40;;;;;;;34.05;nan;98146.88;5039946;28;20531;-64
2023/09/15 07:11:02;;;;;;;15.15;13.65;;;;;;;34.25;nan;98144.97;5038250;28;20041;-65
2023/09/15 07:13:31;;;;;;;16.88;14.73;;;;;;;34.33;nan;98149.44;5033971;28;20139;-64
2023/09/15 07:16:00;;;;;;;16.27;14.68;;;;;;;33.99;nan;98144.78;5044506;28;20052;-63
2023/09/15 07:18:29;;;;;;;18.75;15.50;;;;;;;33.88;nan;98151.97;5044135;28;20053;-63
2023/09/15 07:20:59;;;;;;;15.98;14.43;;;;;;;33.56;nan;98149.25;5044006;28;20133;-63
2023/09/15 07:23:28;;;;;;;17.83;15.25;;;;;;;33.59;nan;98142.28;5037152;28;20134;-63
2023/09/15 07:25:58;;;;;;;17.13;15.32;;;;;;;33.79;nan;98133.75;5044014;28;20118;-64
2023/09/15 07:28:28;;;;;;;17.20;15.50;;;;;;;33.60;nan;98125.41;5044039;28;20047;-63
2023/09/15 07:31:09;;;;;;;19.42;17.13;;;;;;;33.64;nan;98126.28;5040624;28;20071;-63
2023/09/15 07:33:39;;;;;;;19.27;17.20;;;;;;;33.77;nan;98127.78;5037798;28;20053;-64
2023/09/15 07:36:08;;;;;;;26.15;17.60;;;;;;;34.04;nan;98122.47;5043763;28;20052;-64
2023/09/15 07:38:38;;;;;;;17.52;15.73;;;;;;;34.05;nan;98113.09;5036754;28;20064;-64
2023/09/15 07:41:07;;;;;;;17.38;15.18;;;;;;;34.16;nan;98097.63;5043619;28;20110;-64
2023/09/15 07:43:37;;;;;;;17.42;15.52;;;;;;;34.00;nan;98096.88;5035239;28;20056;-64
2023/09/15 07:46:07;;;;;;;18.83;15.73;;;;;;;34.20;nan;98101.25;5041757;28;20998;-63
2023/09/15 07:48:42;;;;;;;21.17;16.70;;;;;;;34.53;nan;98093.25;5044633;28;20053;-62
2023/09/15 07:51:13;;;;;;;36.30;17.67;;;;;;;34.50;nan;98096.75;5040370;28;20049;-64
2023/09/15 07:53:44;;;;;;;16.80;15.20;;;;;;;34.33;nan;98088.16;5038642;28;20084;-63
2023/09/15 07:56:20;;;;;;;18.55;15.77;;;;;;;34.29;nan;98085.34;5024181;28;20064;-63
2023/09/15 07:58:50;;;;;;;17.60;15.30;;;;;;;34.27;nan;98076.66;5024785;28;20041;-64
2023/09/15 08:01:19;;;;;;;19.33;15.95;;;;;;;34.18;nan;98078.81;5029116;28;20049;-63
2023/09/15 08:03:48;;;;;;;16.77;14.50;;;;;;;34.22;nan;98071.44;5030204;28;20481;-63
2023/09/15 08:06:19;;;;;;;17.98;15.43;;;;;;;34.05;nan;98071.84;5044020;28;20166;-63
2023/09/15 08:08:48;;;;;;;18.33;16.00;;;;;;;34.02;nan;98075.34;5043769;28;20057;-63
2023/09/15 08:11:18;;;;;;;18.73;15.70;;;;;;;34.05;nan;98072.66;5032705;28;20145;-63
2023/09/15 08:13:47;;;;;;;17.10;15.30;;;;;;;33.78;nan;98062.66;5034876;28;20060;-63
2023/09/15 08:16:17;;;;;;;17.23;15.07;;;;;;;33.99;nan;98054.06;5036234;28;20067;-64
2023/09/15 08:18:46;;;;;;;17.92;16.10;;;;;;;33.92;nan;98051.16;5037365;28;20738;-64
2023/09/15 08:21:15;;;;;;;18.80;16.55;;;;;;;34.22;nan;98038.44;5039106;28;20044;-64
2023/09/15 08:23:45;;;;;;;17.08;15.38;;;;;;;34.38;nan;98030.09;5036174;28;20370;-63
2023/09/15 08:26:14;;;;;;;17.67;15.88;;;;;;;34.08;nan;98016.94;5036252;28;20051;-63
2023/09/15 08:28:44;;;;;;;17.63;15.82;;;;;;;34.11;nan;98015.44;5021452;28;20049;-63
2023/09/15 08:31:13;;;;;;;19.63;16.55;;;;;;;34.12;nan;98003.28;5038935;28;20893;-64
2023/09/15 08:33:43;;;;;;;18.55;16.60;;;;;;;34.07;nan;97998.09;5015965;28;20484;-64
2023/09/15 08:36:16;;;;;;;17.38;15.63;;;;;;;34.03;nan;97998.03;5034882;28;20051;-64
2023/09/15 08:38:45;;;;;;;21.77;16.02;;;;;;;33.93;nan;97995.84;5038107;28;20290;-64
2023/09/15 08:41:40;;;;;;;17.88;16.08;;;;;;;34.13;nan;97991.91;5033574;28;20044;-64
2023/09/15 08:44:10;;;;;;;19.67;16.10;;;;;;;34.10;nan;97978.09;5032789;28;20048;-64
2023/09/15 08:46:39;;;;;;;17.23;15.57;;;;;;;33.96;nan;97986.88;5032545;28;20463;-63
2023/09/15 08:49:09;;;;;;;18.35;16.30;;;;;;;33.72;nan;97977.00;5033135;28;20578;-63
2023/09/15 08:51:40;;;;;;;17.67;15.43;;;;;;;33.83;nan;97978.00;5034728;28;20103;-63
2023/09/15 08:54:17;;;;;;;17.58;15.80;;;;;;;33.69;nan;97980.44;5033576;28;20048;-63
2023/09/15 08:56:47;;;;;;;17.05;15.20;;;;;;;33.87;nan;97980.00;5035286;28;20183;-64
2023/09/15 08:59:17;;;;;;;17.15;15.45;;;;;;;33.91;nan;97991.84;5029908;28;20073;-64
2023/09/15 09:01:46;;;;;;;16.77;15.00;;;;;;;33.73;nan;97977.78;5012276;28;20106;-65
2023/09/15 09:04:18;;;;;;;15.77;14.27;;;;;;;33.92;nan;97965.97;5035446;28;20140;-63
2023/09/15 09:06:49;;;;;;;16.30;14.60;;;;;;;33.65;nan;97957.59;5042336;28;20147;-66
2023/09/15 09:09:18;;;;;;;16.80;15.13;;;;;;;33.66;nan;97953.72;5041708;28;20059;-65
2023/09/15 09:11:48;;;;;;;14.80;13.20;;;;;;;33.66;nan;97953.72;5039321;28;20073;-64
2023/09/15 09:14:19;;;;;;;15.40;13.93;;;;;;;33.75;nan;97950.75;5031886;28;20110;-64
2023/09/15 09:16:50;;;;;;;15.50;14.00;;;;;;;33.66;nan;97942.72;5041552;28;20230;-65
2023/09/15 09:19:19;;;;;;;15.05;13.25;;;;;;;33.70;nan;97945.53;5037372;28;20121;-65
2023/09/15 09:21:50;;;;;;;15.35;12.85;;;;;;;33.65;nan;97943.84;5038413;28;20060;-65
2023/09/15 09:24:23;;;;;;;16.67;13.38;;;;;;;33.28;nan;97943.47;5034838;28;20549;-64
2023/09/15 09:26:54;;;;;;;14.05;12.55;;;;;;;33.40;nan;97932.38;5037805;28;20052;-64
2023/09/15 09:29:28;;;;;;;15.20;13.52;;;;;;;33.16;nan;97929.88;5036561;28;20623;-64
2023/09/15 09:31:57;;;;;;;17.23;13.98;;;;;;;33.14;nan;97914.91;5035430;28;20091;-62
2023/09/15 09:34:26;;;;;;;16.92;13.95;;;;;;;33.28;nan;97907.00;5034880;28;20088;-63
2023/09/15 09:37:14;;;;;;;17.90;14.27;;;;;;;33.41;nan;97895.50;5034370;28;20060;-65
2023/09/15 09:39:47;;;;;;;16.45;14.48;;;;;;;33.40;nan;97888.44;5029710;28;20048;-64
2023/09/15 09:42:34;;;;;;;16.83;14.73;;;;;;;33.52;nan;97900.41;5034659;28;20581;-65
2023/09/15 09:45:05;;;;;;;19.35;14.32;;;;;;;33.47;nan;97900.69;5031950;28;20083;-63
2023/09/15 09:47:34;;;;;;;18.80;15.18;;;;;;;33.28;nan;97898.78;5038023;28;20103;-64
2023/09/15 09:50:11;;;;;;;19.90;14.95;;;;;;;33.42;nan;97899.03;5037782;28;20126;-63
2023/09/15 09:52:41;;;;;;;16.80;15.18;;;;;;;33.35;nan;97876.94;5037144;28;20068;-63
2023/09/15 09:55:10;;;;;;;18.27;16.38;;;;;;;33.39;nan;97861.34;5038224;28;20052;-63
2023/09/15 09:57:40;;;;;;;16.48;14.88;;;;;;;33.35;nan;97849.50;5037584;28;20049;-65
2023/09/15 10:00:10;;;;;;;17.00;15.38;;;;;;;33.25;nan;97867.34;5032513;28;20049;-65
2023/09/15 10:02:40;;;;;;;18.60;14.60;;;;;;;33.12;nan;97876.03;5033916;28;20133;-64
2023/09/15 10:05:09;;;;;;;16.73;14.15;;;;;;;33.06;nan;97877.50;5034350;28;20048;-62
2023/09/15 10:07:45;;;;;;;16.88;14.15;;;;;;;33.06;nan;97878.25;5036978;28;20139;-63
2023/09/15 10:10:19;;;;;;;15.55;13.88;;;;;;;32.88;nan;97869.66;5031388;28;20101;-64
2023/09/15 10:12:48;;;;;;;19.13;15.13;;;;;;;32.96;nan;97846.72;5032295;28;20060;-63
2023/09/15 10:15:18;;;;;;;17.48;13.32;;;;;;;33.04;nan;97849.59;5030913;28;20140;-63
2023/09/15 10:17:48;;;;;;;17.45;13.50;;;;;;;33.04;nan;97841.38;4999176;28;20053;-64
2023/09/15 10:20:18;;;;;;;15.10;13.45;;;;;;;32.98;nan;97841.66;5011556;28;20054;-63
2023/09/15 10:22:47;;;;;;;14.77;13.35;;;;;;;32.92;nan;97834.09;5025966;28;20146;-63
2023/09/15 10:25:17;;;;;;;16.73;13.75;;;;;;;32.91;nan;97825.06;5025305;28;20114;-63
2023/09/15 10:27:47;;;;;;;15.85;14.15;;;;;;;32.83;nan;97823.31;5034500;28;20049;-64
2023/09/15 10:30:16;;;;;;;14.60;13.13;;;;;;;32.85;nan;97814.72;5033047;28;20132;-64
2023/09/15 10:32:46;;;;;;;15.32;13.00;;;;;;;32.90;nan;97812.47;5037047;28;20160;-63
2023/09/15 10:35:16;;;;;;;15.20;12.87;;;;;;;32.91;nan;97814.09;4683668;28;10000282;-63
2023/09/15 10:37:47;;;;;;;14.20;12.77;;;;;;;32.81;nan;97820.13;5012982;28;20420;-65
2023/09/15 10:40:17;;;;;;;13.35;12.05;;;;;;;32.87;nan;97826.94;5031148;28;20041;-63
2023/09/15 10:42:51;;;;;;;14.25;12.43;;;;;;;32.87;nan;97821.44;5028261;28;20045;-64
2023/09/15 10:45:21;;;;;;;15.65;12.73;;;;;;;32.84;nan;97819.41;5027448;28;20057;-65
2023/09/15 10:48:00;;;;;;;12.82;11.10;;;;;;;32.78;nan;97809.88;5033687;28;20491;-65
2023/09/15 10:50:39;;;;;;;13.25;12.05;;;;;;;32.64;nan;97800.56;5030482;28;20061;-64
2023/09/15 10:53:14;;;;;;;13.70;12.30;;;;;;;32.66;nan;97798.25;5035544;28;20045;-67
2023/09/15 10:55:43;;;;;;;14.05;11.30;;;;;;;32.62;nan;97791.88;5027701;28;20058;-64
2023/09/15 10:58:16;;;;;;;14.95;13.38;;;;;;;32.78;nan;97792.63;5036194;28;20045;-64
2023/09/15 11:00:47;;;;;;;14.82;11.40;;;;;;;32.77;nan;97789.09;5031570;28;20041;-64
2023/09/15 11:03:19;;;;;;;12.95;11.63;;;;;;;32.69;nan;97795.59;5033682;28;20586;-66
2023/09/15 11:05:49;;;;;;;14.98;12.68;;;;;;;32.68;nan;97806.91;5036143;28;20140;-66
2023/09/15 11:08:19;;;;;;;13.65;12.15;;;;;;;32.65;nan;97811.16;5034481;28;20064;-66
2023/09/15 11:11:03;;;;;;;14.52;13.02;;;;;;;32.70;nan;97799.13;5028629;28;20206;-69
2023/09/15 11:13:34;;;;;;;14.13;12.75;;;;;;;32.63;nan;97799.75;5011586;28;20118;-66
2023/09/15 11:16:04;;;;;;;17.88;13.23;;;;;;;32.62;nan;97800.91;5034546;28;20063;-66
2023/09/15 11:18:34;;;;;;;15.68;14.07;;;;;;;32.53;nan;97803.81;5017127;28;20045;-67
2023/09/15 11:21:05;;;;;;;16.55;14.50;;;;;;;32.41;nan;97805.88;5032998;28;20721;-68
2023/09/15 11:23:36;;;;;;;18.92;14.40;;;;;;;32.45;nan;97817.72;5029906;28;20044;-66
2023/09/15 11:26:09;;;;;;;17.83;15.32;;;;;;;32.34;nan;97816.69;5032863;28;20049;-66
2023/09/15 11:28:53;;;;;;;16.98;15.23;;;;;;;32.34;nan;97809.28;5032446;28;21050;-66
2023/09/15 11:31:23;;;;;;;17.60;15.45;;;;;;;32.36;nan;97823.41;5032687;28;20055;-66
2023/09/15 11:33:54;;;;;;;19.55;15.30;;;;;;;32.21;nan;97831.66;5032407;28;20041;-69
2023/09/15 11:36:24;;;;;;;22.08;16.15;;;;;;;32.02;nan;97843.28;5015926;28;20057;-68
2023/09/15 11:38:56;;;;;;;18.08;14.75;;;;;;;32.02;nan;97852.31;5033462;28;20824;-68
2023/09/15 11:41:36;;;;;;;17.83;14.10;;;;;;;31.93;nan;97842.69;5020046;28;20049;-68
2023/09/15 11:44:09;;;;;;;18.98;13.77;;;;;;;31.90;nan;97844.19;5029878;28;20163;-67
2023/09/15 11:46:40;;;;;;;16.65;13.63;;;;;;;31.86;nan;97835.09;5032820;28;20055;-68
2023/09/15 11:49:10;;;;;;;15.27;13.77;;;;;;;31.97;nan;97840.81;5030416;28;20051;-73
2023/09/15 11:51:40;;;;;;;16.65;13.20;;;;;;;31.83;nan;97841.25;5026360;28;20142;-67
2023/09/15 11:54:10;;;;;;;18.40;14.02;;;;;;;31.64;nan;97838.41;5037692;28;20114;-69
2023/09/15 11:56:40;;;;;;;15.32;13.65;;;;;;;31.56;nan;97840.16;5032662;28;20532;-69